Time;durP1;ratioP1;P1;durP2;ratioP2;P2;SDS_P1;SDS_P2;PMS_P1;PMS_P2;Temp;Humidity;BMP_temperature;BMP_pressure;BME280_temperature;BME280_humidity;BME280_pressure;Samples;Min_cycle;Max_cycle;Signal;HPM_P1;HPM_P2
2021/09/24 00:00:48;;;;;;;4.38;4.07;;;15.10;99.90;;;;;;6062048;23;20276;-79
2021/09/24 00:03:15;;;;;;;3.97;3.65;;;15.10;99.90;;;;;;6063347;23;20250;-79
2021/09/24 00:05:42;;;;;;;4.00;3.70;;;15.10;99.90;;;;;;6062915;23;20202;-79
2021/09/24 00:08:09;;;;;;;4.40;3.97;;;15.10;99.90;;;;;;6063139;23;20597;-79
2021/09/24 00:10:36;;;;;;;4.57;4.18;;;15.10;99.90;;;;;;6062837;23;20258;-79
2021/09/24 00:13:04;;;;;;;4.40;3.97;;;15.00;99.90;;;;;;6062863;23;20202;-79
2021/09/24 00:15:32;;;;;;;4.13;3.72;;;15.00;99.90;;;;;;6063164;23;20277;-79
2021/09/24 00:17:59;;;;;;;4.75;4.35;;;15.00;99.90;;;;;;6062580;23;20210;-79
2021/09/24 00:20:27;;;;;;;4.63;4.22;;;15.00;99.90;;;;;;6063621;23;20206;-79
2021/09/24 00:22:54;;;;;;;4.50;4.10;;;14.90;99.90;;;;;;6057957;23;20210;-79
2021/09/24 00:25:21;;;;;;;4.57;4.20;;;14.90;99.90;;;;;;6062181;23;20257;-78
2021/09/24 00:27:48;;;;;;;4.20;3.90;;;14.90;99.90;;;;;;6063128;23;20262;-79
2021/09/24 00:30:16;;;;;;;4.18;3.88;;;14.90;99.90;;;;;;6061848;23;20257;-79
2021/09/24 00:32:43;;;;;;;3.90;3.60;;;14.90;99.90;;;;;;6063417;23;20206;-79
2021/09/24 00:35:11;;;;;;;4.03;3.72;;;14.90;99.90;;;;;;6061777;23;20588;-79
2021/09/24 00:37:38;;;;;;;4.38;3.97;;;14.80;99.90;;;;;;6062853;23;20266;-79
2021/09/24 00:40:08;;;;;;;4.28;3.88;;;14.80;99.90;;;;;;6063652;23;20210;-80
2021/09/24 00:42:35;;;;;;;3.85;3.40;;;14.80;99.90;;;;;;6063348;23;20271;-79
2021/09/24 00:45:02;;;;;;;4.30;3.92;;;14.80;99.90;;;;;;6063636;23;20217;-79
2021/09/24 00:47:30;;;;;;;4.75;4.35;;;14.80;99.90;;;;;;6063250;23;20210;-79
2021/09/24 00:49:57;;;;;;;4.97;4.57;;;14.80;99.90;;;;;;6036329;23;20600;-73
2021/09/24 00:52:25;;;;;;;4.88;4.47;;;14.80;99.90;;;;;;6056813;23;20567;-73
2021/09/24 00:54:53;;;;;;;4.78;4.43;;;14.80;99.90;;;;;;6020851;23;20210;-73
2021/09/24 00:57:21;;;;;;;4.68;4.28;;;14.80;99.90;;;;;;6058220;23;20213;-73
2021/09/24 00:59:48;;;;;;;4.07;3.78;;;14.80;99.90;;;;;;6058807;23;20210;-72
2021/09/24 01:02:15;;;;;;;4.65;4.25;;;14.80;99.90;;;;;;6058314;23;20242;-73
2021/09/24 01:04:44;;;;;;;4.57;4.18;;;14.70;99.90;;;;;;6058969;23;20261;-75
2021/09/24 01:07:13;;;;;;;4.20;3.80;;;14.70;99.90;;;;;;6058291;23;20528;-71
2021/09/24 01:09:40;;;;;;;4.03;3.72;;;14.70;99.90;;;;;;6058088;23;20712;-73
2021/09/24 01:12:08;;;;;;;4.70;4.30;;;14.60;99.90;;;;;;6058026;23;20254;-72
2021/09/24 01:14:35;;;;;;;4.03;3.58;;;14.60;99.90;;;;;;6058379;23;20218;-73
2021/09/24 01:17:03;;;;;;;4.93;4.25;;;14.50;99.90;;;;;;6058056;23;20592;-74
2021/09/24 01:19:30;;;;;;;4.40;4.00;;;14.50;99.90;;;;;;6058249;23;20723;-73
2021/09/24 01:21:59;;;;;;;4.57;4.10;;;14.50;99.90;;;;;;6057519;23;20601;-73
2021/09/24 01:24:26;;;;;;;4.13;3.75;;;14.50;99.90;;;;;;6058613;23;20206;-74
2021/09/24 01:26:56;;;;;;;4.10;3.80;;;14.60;99.90;;;;;;6058612;23;20206;-72
2021/09/24 01:29:25;;;;;;;4.30;4.00;;;14.60;99.90;;;;;;6059187;23;20265;-73
2021/09/24 01:31:52;;;;;;;4.65;4.25;;;14.50;99.90;;;;;;6057828;23;20701;-73
2021/09/24 01:34:19;;;;;;;3.72;3.53;;;14.50;99.90;;;;;;6057369;23;20455;-72
2021/09/24 01:36:46;;;;;;;4.63;4.22;;;14.50;99.90;;;;;;6057653;23;20269;-73
2021/09/24 01:39:15;;;;;;;4.10;3.80;;;14.50;99.90;;;;;;6058754;23;20603;-75
2021/09/24 01:41:44;;;;;;;3.85;3.58;;;14.50;99.90;;;;;;6057994;23;20217;-74
2021/09/24 01:44:11;;;;;;;4.00;3.70;;;14.40;99.90;;;;;;6058372;23;20270;-73
2021/09/24 01:46:39;;;;;;;4.50;4.10;;;14.40;99.90;;;;;;6056298;23;20213;-74
2021/09/24 01:49:07;;;;;;;4.70;4.10;;;14.40;99.90;;;;;;6058200;23;20214;-73
2021/09/24 01:51:34;;;;;;;4.28;3.88;;;14.30;99.90;;;;;;6058682;23;20690;-73
2021/09/24 01:54:02;;;;;;;4.22;3.92;;;14.30;99.90;;;;;;6057982;23;20206;-75
2021/09/24 01:56:30;;;;;;;5.03;4.55;;;14.30;99.90;;;;;;6058101;23;20214;-72
2021/09/24 01:58:57;;;;;;;4.43;4.13;;;14.30;99.90;;;;;;6056832;23;20213;-72
2021/09/24 02:01:24;;;;;;;4.18;3.88;;;14.30;99.90;;;;;;6060427;23;20743;-74
2021/09/24 02:03:51;;;;;;;4.13;3.72;;;14.20;99.90;;;;;;6057915;23;20211;-72
2021/09/24 02:06:18;;;;;;;4.20;3.88;;;14.20;99.90;;;;;;6058519;23;20206;-70
2021/09/24 02:08:45;;;;;;;4.63;4.03;;;14.10;99.90;;;;;;6057923;23;20210;-73
2021/09/24 02:11:12;;;;;;;5.10;4.50;;;14.20;99.90;;;;;;6057586;23;20209;-73
2021/09/24 02:13:42;;;;;;;4.65;4.28;;;14.20;99.90;;;;;;6058871;23;20588;-75
2021/09/24 02:16:10;;;;;;;4.20;3.90;;;14.30;99.90;;;;;;6056538;23;20205;-74
2021/09/24 02:18:37;;;;;;;4.20;3.80;;;14.30;99.90;;;;;;6058144;23;20607;-74
2021/09/24 02:21:04;;;;;;;4.18;3.88;;;14.30;99.90;;;;;;6056780;23;20214;-73
2021/09/24 02:23:31;;;;;;;3.75;3.40;;;14.30;99.90;;;;;;6058921;23;20289;-76
2021/09/24 02:25:58;;;;;;;3.95;3.65;;;14.30;99.90;;;;;;6057334;23;20262;-73
2021/09/24 02:28:25;;;;;;;3.88;3.58;;;14.20;99.90;;;;;;6059549;23;20202;-73
2021/09/24 02:30:54;;;;;;;3.70;3.40;;;14.20;99.90;;;;;;6044421;23;20640;-71
2021/09/24 02:33:21;;;;;;;4.03;3.72;;;14.20;99.90;;;;;;6057049;23;20469;-74
2021/09/24 02:35:48;;;;;;;4.40;4.10;;;14.20;99.90;;;;;;6057958;23;20210;-72
2021/09/24 02:38:15;;;;;;;3.53;3.22;;;14.20;99.90;;;;;;6057044;23;20739;-73
2021/09/24 02:40:42;;;;;;;4.47;3.58;;;14.10;99.90;;;;;;6058241;23;20596;-74
2021/09/24 02:43:09;;;;;;;3.70;3.45;;;14.10;99.90;;;;;;6057813;23;20207;-73
2021/09/24 02:45:36;;;;;;;3.83;3.53;;;14.10;99.90;;;;;;6057294;23;20552;-75
2021/09/24 02:48:05;;;;;;;4.10;3.80;;;14.10;99.90;;;;;;6057708;23;20257;-73
2021/09/24 02:50:32;;;;;;;3.50;3.30;;;14.10;99.90;;;;;;6058338;23;20678;-73
2021/09/24 02:52:59;;;;;;;3.95;3.65;;;14.00;99.90;;;;;;6058729;23;20210;-73
2021/09/24 02:55:26;;;;;;;4.25;3.75;;;14.00;99.90;;;;;;6058189;23;20599;-72
2021/09/24 02:57:53;;;;;;;4.28;3.97;;;14.00;99.90;;;;;;6057473;23;20294;-71
2021/09/24 03:00:20;;;;;;;3.83;3.50;;;14.00;99.90;;;;;;6059550;23;20217;-72
2021/09/24 03:02:47;;;;;;;4.13;3.58;;;14.00;99.90;;;;;;6060380;23;20220;-72
2021/09/24 03:05:15;;;;;;;3.90;3.58;;;14.00;99.90;;;;;;6059613;23;20584;-71
2021/09/24 03:07:42;;;;;;;3.50;3.30;;;14.00;99.90;;;;;;6058666;23;20588;-73
2021/09/24 03:10:10;;;;;;;3.97;3.67;;;14.00;99.90;;;;;;6058453;23;20210;-73
2021/09/24 03:12:38;;;;;;;3.90;3.60;;;14.00;99.90;;;;;;6058161;23;20277;-74
2021/09/24 03:15:06;;;;;;;3.97;3.63;;;14.10;99.90;;;;;;6058613;23;20695;-74
2021/09/24 03:17:33;;;;;;;3.35;3.15;;;14.10;99.90;;;;;;6058487;23;20265;-74
2021/09/24 03:20:00;;;;;;;3.50;3.20;;;14.10;99.90;;;;;;6058909;23;20206;-74
2021/09/24 03:22:29;;;;;;;4.05;3.75;;;14.10;99.90;;;;;;6058777;23;20205;-74
2021/09/24 03:24:56;;;;;;;4.07;3.78;;;14.10;99.90;;;;;;6059340;23;20458;-72
2021/09/24 03:27:23;;;;;;;4.72;3.65;;;14.10;99.90;;;;;;6057760;23;20198;-74
2021/09/24 03:29:50;;;;;;;3.55;3.33;;;14.10;99.90;;;;;;6058327;23;20595;-73
2021/09/24 03:32:19;;;;;;;3.60;3.38;;;14.10;99.90;;;;;;6057628;23;20311;-75
2021/09/24 03:34:46;;;;;;;3.35;3.13;;;14.10;99.90;;;;;;6058875;23;20210;-75
2021/09/24 03:37:13;;;;;;;3.70;3.40;;;14.10;99.90;;;;;;6057668;23;20206;-75
2021/09/24 03:39:42;;;;;;;3.47;3.28;;;14.10;99.90;;;;;;6057844;23;20214;-73
2021/09/24 03:42:09;;;;;;;3.75;3.45;;;14.10;99.90;;;;;;6058430;23;20202;-74
2021/09/24 03:44:37;;;;;;;3.83;3.53;;;14.10;99.90;;;;;;6057559;23;20202;-74
2021/09/24 03:47:05;;;;;;;3.90;3.60;;;14.00;99.90;;;;;;6057402;23;20206;-73
2021/09/24 03:49:32;;;;;;;4.55;4.15;;;14.00;99.90;;;;;;6058244;23;20215;-72
2021/09/24 03:52:00;;;;;;;5.70;3.88;;;13.90;99.90;;;;;;6058574;23;20210;-71
2021/09/24 03:54:27;;;;;;;3.22;3.03;;;13.90;99.90;;;;;;6058234;23;20507;-73
2021/09/24 03:56:56;;;;;;;3.97;3.70;;;13.80;99.90;;;;;;6058297;23;20209;-72
2021/09/24 03:59:23;;;;;;;4.55;3.85;;;13.80;99.90;;;;;;6058206;23;20214;-74
2021/09/24 04:01:50;;;;;;;3.50;3.30;;;13.80;99.90;;;;;;6057496;23;20206;-73
2021/09/24 04:04:18;;;;;;;3.40;3.20;;;13.80;99.90;;;;;;6058910;23;20221;-73
2021/09/24 04:06:45;;;;;;;3.67;3.38;;;13.70;99.90;;;;;;6057487;23;20734;-73
2021/09/24 04:09:13;;;;;;;3.85;3.55;;;13.70;99.90;;;;;;6056860;23;20695;-73
2021/09/24 04:11:40;;;;;;;3.45;3.22;;;13.70;99.90;;;;;;6057454;23;20210;-74
2021/09/24 04:14:09;;;;;;;3.80;3.50;;;13.60;99.90;;;;;;6058161;23;20584;-73
2021/09/24 04:16:36;;;;;;;3.67;3.38;;;13.70;99.90;;;;;;6056608;23;20258;-75
2021/09/24 04:19:03;;;;;;;3.63;3.42;;;13.70;99.90;;;;;;6057046;23;20266;-73
2021/09/24 04:21:30;;;;;;;3.65;3.35;;;13.70;99.90;;;;;;6057283;23;20603;-74
2021/09/24 04:23:57;;;;;;;3.80;3.50;;;13.70;99.90;;;;;;6057850;23;20444;-73
2021/09/24 04:26:24;;;;;;;3.70;3.40;;;13.70;99.90;;;;;;6058571;23;20210;-75
2021/09/24 04:28:52;;;;;;;3.53;3.33;;;13.80;99.90;;;;;;6057152;23;20211;-75
2021/09/24 04:31:20;;;;;;;3.85;3.42;;;13.80;99.90;;;;;;6057770;23;20210;-74
2021/09/24 04:33:47;;;;;;;4.10;3.30;;;13.80;99.90;;;;;;6057202;23;20682;-73
2021/09/24 04:36:14;;;;;;;3.70;3.50;;;13.80;99.90;;;;;;6057603;23;20746;-78
2021/09/24 04:38:41;;;;;;;3.90;3.50;;;13.80;99.90;;;;;;6056324;23;20202;-74
2021/09/24 04:41:08;;;;;;;3.88;3.58;;;13.80;99.90;;;;;;6057564;23;20597;-74
2021/09/24 04:43:35;;;;;;;4.07;3.78;;;13.80;99.90;;;;;;6058188;23;20210;-75
2021/09/24 04:46:02;;;;;;;3.83;3.53;;;13.80;99.90;;;;;;6057623;23;20447;-75
2021/09/24 04:48:32;;;;;;;3.40;3.20;;;13.70;99.90;;;;;;6057458;23;20217;-77
2021/09/24 04:50:59;;;;;;;3.97;3.63;;;13.60;99.90;;;;;;6056856;23;20237;-74
2021/09/24 04:53:26;;;;;;;3.50;3.30;;;13.60;99.90;;;;;;6058475;23;20209;-76
2021/09/24 04:55:53;;;;;;;3.97;3.58;;;13.60;99.90;;;;;;6057133;23;20210;-75
2021/09/24 04:58:20;;;;;;;3.90;3.35;;;13.60;99.90;;;;;;6056758;23;20671;-74
2021/09/24 05:00:49;;;;;;;3.50;3.20;;;13.60;99.90;;;;;;6056928;23;20612;-78
2021/09/24 05:03:16;;;;;;;3.78;3.47;;;13.50;99.90;;;;;;6057226;23;20281;-73
2021/09/24 05:05:44;;;;;;;3.50;3.30;;;13.40;99.90;;;;;;6055802;23;20222;-71
2021/09/24 05:08:11;;;;;;;3.85;3.55;;;13.40;99.90;;;;;;6056492;23;20198;-76
2021/09/24 05:10:39;;;;;;;3.60;3.30;;;13.30;99.90;;;;;;6055593;23;20794;-75
2021/09/24 05:13:06;;;;;;;3.50;3.20;;;13.30;99.90;;;;;;6056649;23;20262;-74
2021/09/24 05:15:33;;;;;;;4.10;3.72;;;13.30;99.90;;;;;;6056917;23;20206;-75
2021/09/24 05:18:01;;;;;;;3.53;3.22;;;13.30;99.90;;;;;;6056373;23;20225;-75
2021/09/24 05:20:29;;;;;;;3.78;3.58;;;13.20;99.90;;;;;;6057150;23;20674;-77
2021/09/24 05:22:58;;;;;;;4.00;3.60;;;13.10;99.90;;;;;;6057645;23;20666;-78
2021/09/24 05:25:25;;;;;;;4.00;3.60;;;13.00;99.90;;;;;;6057250;23;20269;-76
2021/09/24 05:27:53;;;;;;;3.85;3.50;;;12.90;99.90;;;;;;6057116;23;20249;-78
2021/09/24 05:30:21;;;;;;;4.70;3.55;;;12.80;99.90;;;;;;6057697;23;20221;-76
2021/09/24 05:32:48;;;;;;;3.70;3.40;;;12.70;99.90;;;;;;6056505;23;20214;-75
2021/09/24 05:35:15;;;;;;;3.88;3.58;;;12.70;99.90;;;;;;6055779;23;20650;-77
2021/09/24 05:37:43;;;;;;;4.70;3.80;;;12.70;99.90;;;;;;6055509;23;20284;-75
2021/09/24 05:40:13;;;;;;;4.72;4.32;;;12.70;99.90;;;;;;6058127;23;20596;-77
2021/09/24 05:42:40;;;;;;;4.03;3.72;;;12.70;99.90;;;;;;6057213;23;20217;-76
2021/09/24 05:45:11;;;;;;;4.22;3.83;;;12.70;99.90;;;;;;6057026;23;20201;-74
2021/09/24 05:47:38;;;;;;;4.35;4.05;;;12.70;99.90;;;;;;6056913;23;20282;-77
2021/09/24 05:50:11;;;;;;;4.20;3.90;;;12.70;99.90;;;;;;6057105;23;20210;-77
2021/09/24 05:52:40;;;;;;;3.55;3.28;;;12.70;99.90;;;;;;6057906;23;20270;-80
2021/09/24 05:55:08;;;;;;;4.18;3.88;;;12.60;99.90;;;;;;6057508;23;20746;-77
2021/09/24 05:57:36;;;;;;;3.60;3.30;;;12.50;99.90;;;;;;6057059;23;20313;-75
2021/09/24 06:00:05;;;;;;;5.18;4.75;;;12.50;99.90;;;;;;6058175;23;20214;-76
2021/09/24 06:02:33;;;;;;;4.10;3.70;;;12.50;99.90;;;;;;6057222;23;20471;-78
2021/09/24 06:05:00;;;;;;;4.22;3.83;;;12.90;99.90;;;;;;6058276;23;20205;-74
2021/09/24 06:07:27;;;;;;;3.28;3.08;;;13.30;99.90;;;;;;6057824;23;20229;-78
2021/09/24 06:09:54;;;;;;;4.13;3.55;;;13.80;99.90;;;;;;6057523;23;20274;-75
2021/09/24 06:12:21;;;;;;;4.35;4.05;;;14.40;99.90;;;;;;6056662;23;20205;-76
2021/09/24 06:14:49;;;;;;;3.55;3.35;;;14.90;99.90;;;;;;6057546;23;20270;-74
2021/09/24 06:17:17;;;;;;;4.13;3.83;;;15.30;99.90;;;;;;6056784;23;20256;-75
2021/09/24 06:19:44;;;;;;;4.65;3.40;;;15.70;99.90;;;;;;6057179;23;20596;-75
2021/09/24 06:22:11;;;;;;;3.88;3.58;;;16.10;99.90;;;;;;6057405;23;20266;-75
2021/09/24 06:24:38;;;;;;;3.65;3.35;;;16.40;99.90;;;;;;6057284;23;20278;-78
2021/09/24 06:27:10;;;;;;;3.83;3.53;;;16.60;99.90;;;;;;6056791;23;20206;-79
2021/09/24 06:29:37;;;;;;;4.50;4.10;;;16.70;99.90;;;;;;6057096;23;20218;-75
2021/09/24 06:32:07;;;;;;;3.67;3.45;;;16.70;99.90;;;;;;6058009;23;20201;-74
2021/09/24 06:34:35;;;;;;;4.03;3.63;;;16.90;99.90;;;;;;6059141;23;20257;-76
2021/09/24 06:37:02;;;;;;;3.58;3.38;;;17.30;99.90;;;;;;6058535;23;20436;-77
2021/09/24 06:39:29;;;;;;;4.82;3.83;;;17.50;99.90;;;;;;6059147;23;20702;-75
2021/09/24 06:41:56;;;;;;;4.18;3.88;;;17.80;99.90;;;;;;6059390;23;20206;-74
2021/09/24 06:44:23;;;;;;;3.65;3.35;;;18.00;99.90;;;;;;6031186;23;20199;-75
2021/09/24 06:46:51;;;;;;;3.58;3.28;;;18.20;99.90;;;;;;6029749;23;20210;-75
2021/09/24 06:49:22;;;;;;;3.58;3.28;;;18.50;99.90;;;;;;6030973;23;20769;-75
2021/09/24 06:51:49;;;;;;;4.03;3.65;;;18.80;99.90;;;;;;6021153;23;20564;-78
2021/09/24 06:54:16;;;;;;;3.65;3.35;;;19.10;99.90;;;;;;6033132;23;20203;-77
2021/09/24 06:56:43;;;;;;;3.30;3.10;;;19.20;99.90;;;;;;6033740;23;20207;-77
2021/09/24 06:59:10;;;;;;;3.47;3.17;;;19.30;99.90;;;;;;6034689;23;20206;-77
2021/09/24 07:01:37;;;;;;;3.65;3.35;;;19.50;99.90;;;;;;6034148;23;20214;-78
2021/09/24 07:04:05;;;;;;;4.05;3.75;;;19.90;99.90;;;;;;6034262;23;20210;-78
2021/09/24 07:06:33;;;;;;;4.00;3.60;;;20.00;99.90;;;;;;6033499;23;20272;-77
2021/09/24 07:09:00;;;;;;;4.75;3.38;;;19.90;99.90;;;;;;6034455;23;20258;-78
2021/09/24 07:11:28;;;;;;;3.45;3.15;;;19.60;99.90;;;;;;6033833;23;20718;-78
2021/09/24 07:13:55;;;;;;;3.75;3.45;;;19.20;99.90;;;;;;6034578;23;20667;-78
2021/09/24 07:16:22;;;;;;;3.88;3.40;;;19.30;99.90;;;;;;6033519;23;20262;-78
2021/09/24 07:18:49;;;;;;;3.45;3.15;;;19.40;99.90;;;;;;6034004;23;20206;-77
2021/09/24 07:21:16;;;;;;;4.47;3.72;;;19.50;99.90;;;;;;6033808;23;20215;-78
2021/09/24 07:23:45;;;;;;;5.50;4.13;;;19.60;99.90;;;;;;6033733;23;20596;-78
2021/09/24 07:26:12;;;;;;;3.83;3.53;;;19.60;99.90;;;;;;6034146;23;20207;-78
2021/09/24 07:28:39;;;;;;;4.05;3.75;;;19.60;99.90;;;;;;6033843;23;20211;-77
2021/09/24 07:31:06;;;;;;;3.90;3.58;;;19.60;99.90;;;;;;6033618;23;20211;-78
2021/09/24 07:33:33;;;;;;;4.95;3.60;;;19.30;99.90;;;;;;6033661;23;20210;-78
2021/09/24 07:36:00;;;;;;;3.72;3.42;;;19.40;99.90;;;;;;6033685;23;20214;-78
2021/09/24 07:38:27;;;;;;;4.07;3.45;;;19.70;99.90;;;;;;6034035;23;20266;-78
2021/09/24 07:40:55;;;;;;;4.53;3.92;;;19.80;99.90;;;;;;6028543;23;20528;-77
2021/09/24 07:43:23;;;;;;;5.40;3.35;;;19.90;99.90;;;;;;5991557;23;20204;-77
2021/09/24 07:45:50;;;;;;;3.92;3.63;;;19.90;99.90;;;;;;6005457;23;20203;-77
2021/09/24 07:48:17;;;;;;;3.97;3.58;;;19.80;99.90;;;;;;6004518;23;20219;-78
2021/09/24 07:50:44;;;;;;;3.70;3.33;;;20.00;99.90;;;;;;6005387;23;20219;-78
2021/09/24 07:53:11;;;;;;;4.78;3.28;;;20.00;99.90;;;;;;6004946;23;20211;-78
2021/09/24 07:55:38;;;;;;;3.47;3.17;;;20.30;99.90;;;;;;6004883;23;20265;-77
2021/09/24 07:58:08;;;;;;;4.18;3.58;;;20.60;99.90;;;;;;6004085;23;20680;-77
2021/09/24 08:00:36;;;;;;;4.40;3.05;;;20.70;99.90;;;;;;6005007;23;20283;-78
2021/09/24 08:03:04;;;;;;;3.58;3.28;;;20.80;99.90;;;;;;6004493;23;20546;-78
2021/09/24 08:05:31;;;;;;;4.18;3.78;;;20.90;99.90;;;;;;6005270;23;20216;-77
2021/09/24 08:07:59;;;;;;;4.35;3.95;;;20.70;99.90;;;;;;6004187;23;20264;-78
2021/09/24 08:10:28;;;;;;;3.92;3.47;;;20.70;99.90;;;;;;6006087;23;20677;-78
2021/09/24 08:12:56;;;;;;;4.68;3.85;;;20.70;99.90;;;;;;6017819;23;20631;-77
2021/09/24 08:15:25;;;;;;;3.63;3.33;;;20.70;99.90;;;;;;6019718;23;20599;-76
2021/09/24 08:17:52;;;;;;;3.72;3.40;;;20.70;99.90;;;;;;6032773;23;20679;-76
2021/09/24 08:20:20;;;;;;;3.85;3.55;;;20.80;99.90;;;;;;6032365;23;20217;-78
2021/09/24 08:22:47;;;;;;;3.42;3.13;;;20.90;99.90;;;;;;6033045;23;20218;-78
2021/09/24 08:25:16;;;;;;;5.20;3.75;;;20.70;99.90;;;;;;6033197;23;20202;-77
2021/09/24 08:27:44;;;;;;;3.33;3.03;;;20.70;99.90;;;;;;6032588;23;20262;-77
2021/09/24 08:30:13;;;;;;;2.95;2.70;;;21.00;99.90;;;;;;6033159;23;20741;-78
2021/09/24 08:32:42;;;;;;;4.13;3.40;;;21.40;99.90;;;;;;6033055;23;20255;-78
2021/09/24 08:35:12;;;;;;;3.53;3.13;;;21.60;99.90;;;;;;6033380;23;20206;-78
2021/09/24 08:37:39;;;;;;;2.90;2.70;;;21.70;99.90;;;;;;6032528;23;20266;-78
2021/09/24 08:40:08;;;;;;;3.35;3.15;;;22.00;99.90;;;;;;6033184;23;20210;-78
2021/09/24 08:42:38;;;;;;;3.30;3.10;;;22.30;99.90;;;;;;6032557;23;20266;-78
2021/09/24 08:45:07;;;;;;;3.60;3.30;;;22.30;99.90;;;;;;6033095;23;20226;-78
2021/09/24 08:47:36;;;;;;;3.58;3.28;;;22.10;99.90;;;;;;6032639;23;20234;-77
2021/09/24 08:50:07;;;;;;;3.50;3.20;;;22.00;99.90;;;;;;6033452;23;20592;-77
2021/09/24 08:52:38;;;;;;;3.40;3.10;;;21.70;99.90;;;;;;6032921;23;20238;-79
2021/09/24 08:55:07;;;;;;;4.15;3.47;;;21.60;99.90;;;;;;6033018;23;20302;-78
2021/09/24 08:57:34;;;;;;;3.40;3.10;;;21.50;99.90;;;;;;6031963;23;20230;-78
2021/09/24 09:00:01;;;;;;;3.50;3.20;;;21.70;99.90;;;;;;6033034;23;20209;-78
2021/09/24 09:02:28;;;;;;;5.20;3.88;;;21.80;99.90;;;;;;6032242;23;20754;-78
2021/09/24 09:04:57;;;;;;;3.30;3.00;;;21.90;99.90;;;;;;6033761;23;20744;-77
2021/09/24 09:07:27;;;;;;;3.20;2.83;;;22.20;99.90;;;;;;6033014;23;20251;-78
2021/09/24 09:09:54;;;;;;;4.35;3.67;;;22.50;99.90;;;;;;6033048;23;20206;-78
2021/09/24 09:12:23;;;;;;;3.35;3.05;;;22.70;99.90;;;;;;6032556;23;20247;-77
2021/09/24 09:14:58;;;;;;;3.92;3.35;;;22.90;99.90;;;;;;6032658;23;20198;-76
2021/09/24 09:17:27;;;;;;;4.65;3.25;;;22.70;99.90;;;;;;6032890;23;20599;-77
2021/09/24 09:20:13;;;;;;;3.58;3.00;;;22.60;99.90;;;;;;6006852;23;20712;-77
2021/09/24 09:22:43;;;;;;;3.65;3.35;;;22.40;99.90;;;;;;6014443;23;20687;-78
2021/09/24 09:25:21;;;;;;;4.00;3.33;;;22.20;99.90;;;;;;6033303;23;20593;-78
2021/09/24 09:27:49;;;;;;;3.28;2.88;;;22.20;99.90;;;;;;6032718;23;20210;-78
2021/09/24 09:30:17;;;;;;;3.65;3.35;;;22.30;99.90;;;;;;6033166;23;20207;-78
2021/09/24 09:32:45;;;;;;;4.53;3.42;;;22.20;99.90;;;;;;6034117;23;20207;-78
2021/09/24 09:35:13;;;;;;;3.25;2.88;;;22.40;99.90;;;;;;6039245;23;20214;-78
2021/09/24 09:37:41;;;;;;;4.18;3.05;;;22.50;99.90;;;;;;6034534;23;20210;-78
2021/09/24 09:40:11;;;;;;;3.17;2.85;;;22.70;99.90;;;;;;6032585;23;20710;-77
2021/09/24 09:42:41;;;;;;;3.38;3.08;;;22.90;99.90;;;;;;6031747;23;20210;-77
2021/09/24 09:45:11;;;;;;;3.47;3.17;;;23.00;99.90;;;;;;6032079;23;20207;-78
2021/09/24 09:47:40;;;;;;;3.65;3.25;;;22.80;99.90;;;;;;6031644;23;20598;-78
2021/09/24 09:50:10;;;;;;;3.17;2.90;;;22.90;99.90;;;;;;6032702;23;20215;-78
2021/09/24 09:53:03;;;;;;;3.88;3.45;;;23.00;99.90;;;;;;6032176;23;20210;-78
2021/09/24 09:55:32;;;;;;;4.90;3.78;;;23.00;99.90;;;;;;6027378;23;20218;-78
2021/09/24 09:58:02;;;;;;;3.10;2.90;;;22.80;99.90;;;;;;6020136;23;20207;-77
2021/09/24 10:00:30;;;;;;;5.28;3.22;;;22.50;99.90;;;;;;6003884;23;20211;-77
2021/09/24 10:03:06;;;;;;;3.00;2.70;;;22.40;99.90;;;;;;6003397;23;20212;-78
2021/09/24 10:05:35;;;;;;;2.97;2.63;;;22.50;99.90;;;;;;6003627;23;20210;-77
2021/09/24 10:08:22;;;;;;;3.25;2.85;;;22.60;99.90;;;;;;6002398;23;21081;-78
2021/09/24 10:10:55;;;;;;;6.47;3.22;;;22.80;99.90;;;;;;6003214;23;20282;-78
2021/09/24 10:13:22;;;;;;;3.50;2.85;;;23.00;99.90;;;;;;6003623;23;20207;-76
2021/09/24 10:15:50;;;;;;;2.83;2.60;;;22.90;99.90;;;;;;6002832;23;20199;-77
2021/09/24 10:18:17;;;;;;;2.72;2.53;;;22.80;99.90;;;;;;6003001;23;20660;-78
2021/09/24 10:20:45;;;;;;;5.43;3.00;;;22.90;99.90;;;;;;6002384;23;20211;-79
2021/09/24 10:23:12;;;;;;;3.20;2.90;;;22.90;99.90;;;;;;6002984;23;20203;-78
2021/09/24 10:25:42;;;;;;;2.88;2.67;;;22.90;99.90;;;;;;6003303;23;20270;-78
2021/09/24 10:28:12;;;;;;;2.85;2.65;;;23.10;99.90;;;;;;6002394;23;20207;-78
2021/09/24 10:30:40;;;;;;;3.13;2.70;;;23.10;99.90;;;;;;6005532;23;20288;-78
2021/09/24 10:33:11;;;;;;;2.85;2.65;;;23.30;99.90;;;;;;6003657;23;20283;-78
2021/09/24 10:35:46;;;;;;;2.92;2.72;;;23.30;99.90;;;;;;6004251;23;20315;-78
2021/09/24 10:38:13;;;;;;;4.53;2.92;;;23.30;99.90;;;;;;6003089;23;20234;-77
2021/09/24 10:41:02;;;;;;;3.08;2.70;;;23.20;99.90;;;;;;6003756;23;20218;-78
2021/09/24 10:43:43;;;;;;;2.70;2.47;;;22.90;99.90;;;;;;6011112;23;20211;-78
2021/09/24 10:46:37;;;;;;;2.80;2.50;;;23.00;99.90;;;;;;6003684;23;20203;-78
2021/09/24 10:49:29;;;;;;;2.95;2.50;;;23.10;99.90;;;;;;6005323;23;20206;-78
2021/09/24 10:52:09;;;;;;;3.05;2.45;;;23.10;99.90;;;;;;6032707;23;20203;-77
2021/09/24 10:54:53;;;;;;;2.20;2.10;;;23.00;99.90;;;;;;6031121;23;20222;-78
2021/09/24 10:57:21;;;;;;;3.38;2.55;;;23.20;99.90;;;;;;6031253;23;20213;-78
2021/09/24 10:59:49;;;;;;;2.10;2.00;;;23.40;99.90;;;;;;6031643;23;20214;-78
2021/09/24 11:02:36;;;;;;;3.20;2.50;;;23.30;99.90;;;;;;6031345;23;20211;-78
2021/09/24 11:05:03;;;;;;;2.85;2.65;;;23.50;99.90;;;;;;6031473;23;20202;-78
2021/09/24 11:07:32;;;;;;;4.72;2.30;;;23.60;99.90;;;;;;6031718;23;20211;-78
2021/09/24 11:09:59;;;;;;;2.90;1.92;;;23.50;99.90;;;;;;6031620;23;20294;-78
2021/09/24 11:12:28;;;;;;;2.45;2.25;;;23.50;99.90;;;;;;6032660;23;20326;-77
2021/09/24 11:15:16;;;;;;;2.20;2.00;;;23.60;99.90;;;;;;6026995;23;20207;-77
2021/09/24 11:17:46;;;;;;;4.63;2.05;;;23.60;99.90;;;;;;6023976;23;20215;-78
2021/09/24 11:20:37;;;;;;;2.60;2.40;;;23.60;99.90;;;;;;6033517;23;20277;-78
2021/09/24 11:23:33;;;;;;;3.20;2.35;;;23.50;99.90;;;;;;6019778;23;20203;-78
2021/09/24 11:26:18;;;;;;;2.45;2.25;;;23.50;99.90;;;;;;6032409;23;20261;-78
2021/09/24 11:28:49;;;;;;;2.50;2.30;;;23.50;99.90;;;;;;6031983;23;20615;-78
2021/09/24 11:31:16;;;;;;;2.05;1.90;;;23.30;99.90;;;;;;6032821;23;20207;-78
2021/09/24 11:33:47;;;;;;;2.25;1.83;;;23.60;99.90;;;;;;6032607;23;20270;-77
2021/09/24 11:36:15;;;;;;;2.08;1.98;;;23.80;99.90;;;;;;6033068;23;20222;-78
2021/09/24 11:38:42;;;;;;;2.63;2.22;;;23.90;99.90;;;;;;6032144;23;20279;-78
2021/09/24 11:41:14;;;;;;;2.97;2.00;;;23.80;99.90;;;;;;6030847;23;20219;-77
2021/09/24 11:43:41;;;;;;;2.63;2.42;;;23.70;99.90;;;;;;6032487;23;20226;-78
2021/09/24 11:46:18;;;;;;;2.42;2.22;;;23.70;99.90;;;;;;6033011;23;20206;-78
2021/09/24 11:48:46;;;;;;;2.17;2.00;;;23.80;99.90;;;;;;6032284;23;20604;-77
2021/09/24 11:51:18;;;;;;;3.33;3.03;;;23.70;99.90;;;;;;6031837;23;20744;-78
2021/09/24 11:53:52;;;;;;;2.75;2.55;;;23.40;99.90;;;;;;6032610;23;20206;-78
2021/09/24 11:56:30;;;;;;;2.33;2.13;;;23.30;99.90;;;;;;6032545;23;20206;-77
2021/09/24 11:59:06;;;;;;;2.20;2.10;;;23.40;99.90;;;;;;6032735;23;20207;-77
2021/09/24 12:01:35;;;;;;;2.47;2.28;;;23.50;99.90;;;;;;6033055;23;20222;-78
2021/09/24 12:04:04;;;;;;;2.58;2.38;;;23.60;99.90;;;;;;6033142;23;20270;-78
2021/09/24 12:06:34;;;;;;;2.08;1.98;;;23.60;99.90;;;;;;6033317;23;20274;-78
2021/09/24 12:09:04;;;;;;;2.58;2.38;;;23.40;99.90;;;;;;6034748;23;20207;-78
2021/09/24 12:11:42;;;;;;;3.42;2.53;;;23.30;99.90;;;;;;6033428;23;20267;-77
2021/09/24 12:14:09;;;;;;;2.30;2.17;;;23.50;99.90;;;;;;6035338;23;20230;-77
2021/09/24 12:16:40;;;;;;;2.60;2.00;;;23.50;99.90;;;;;;6038605;23;20211;-77
2021/09/24 12:19:09;;;;;;;2.65;2.45;;;23.50;99.90;;;;;;6035866;23;20211;-77
2021/09/24 12:21:49;;;;;;;2.58;2.38;;;23.30;99.90;;;;;;6033499;23;20238;-78
2021/09/24 12:24:19;;;;;;;2.63;2.40;;;23.10;99.90;;;;;;6033442;23;20664;-78
2021/09/24 12:26:48;;;;;;;2.75;2.55;;;23.10;99.90;;;;;;6035703;23;20211;-77
2021/09/24 12:29:17;;;;;;;2.92;2.65;;;23.10;99.90;;;;;;6035316;23;20211;-77
2021/09/24 12:31:47;;;;;;;3.17;2.58;;;23.10;99.90;;;;;;6036015;23;20222;-77
2021/09/24 12:34:17;;;;;;;3.15;2.85;;;23.10;99.90;;;;;;6038899;23;20210;-78
2021/09/24 12:36:56;;;;;;;2.70;2.50;;;23.10;99.90;;;;;;6033014;23;20251;-77
2021/09/24 12:39:25;;;;;;;3.28;2.58;;;23.10;99.90;;;;;;6005167;23;20305;-76
2021/09/24 12:41:54;;;;;;;3.17;2.88;;;23.20;99.90;;;;;;6032437;23;20210;-77
2021/09/24 12:44:22;;;;;;;3.72;2.35;;;23.20;99.90;;;;;;6010788;23;20215;-77
2021/09/24 12:46:54;;;;;;;2.67;2.20;;;23.20;99.90;;;;;;6004772;23;20259;-77
2021/09/24 12:49:22;;;;;;;2.97;2.40;;;23.40;99.90;;;;;;6003517;23;20335;-77
2021/09/24 12:51:51;;;;;;;2.60;2.40;;;23.50;99.90;;;;;;5985336;23;20212;-72
2021/09/24 12:54:19;;;;;;;2.63;2.40;;;23.50;99.90;;;;;;6006738;23;20207;-72
2021/09/24 12:56:46;;;;;;;2.38;2.17;;;23.60;99.90;;;;;;6000402;23;20680;-72